»·PEaware :: N969DA S21-KHIO

N969DA :: S21-KHIO

FLIGHT INFORMATION

Flight Status: Arrived
Operator: Privately registered:
United States
More flights under this callsign
Pilot: Anonymous 20880 (20880)
Aircraft: Unknown
(DA62)
More flights by this aircraft type
Origin: S21 Sunriver
United States
Destination: KHIO Portland-Hillsboro
United States
More flights between these airports :: More routes between these airports
Route: OCTAD V25 DSD V25 HERBS T304 JJETT T304 GLARA
File this flight plan on PilotEdge
Remarks:
Altitude:
(Current/Filed)
8,000ft
Speed:
(Current/Filed)
150kts
Departed: 20-Dec-18 08:34 PM
Arrived: 20-Dec-18 09:28 PM
Distance/Time
Traveled:
118nm/0:54
Distance/Time
To Go:
Arrived

Flight Plot

Page will automatically refresh every two minutes.

Flight plan parsing failed; only flown route is shown


Map Options




Map Legend


Flown Route
Filed Route
Departure Airport
Arrival Airport
Navaid (VOR, NDB)
Fix

Horizontal Profiles

Position Reports

Time Latitude Longitude Heading Altitude Ground
Speed
20-Dec-18 20:14 43.869687 -121.456242 200 4164ft 0kts
20-Dec-18 20:15 43.869687 -121.456242 200 4164ft 0kts
20-Dec-18 20:16 43.869687 -121.456242 200 4164ft 0kts
20-Dec-18 20:17 43.869687 -121.456242 200 4164ft 0kts
20-Dec-18 20:18 43.869687 -121.456242 200 4164ft 0kts
20-Dec-18 20:19 43.869687 -121.456242 200 4164ft 0kts
20-Dec-18 20:20 43.869687 -121.456242 200 4164ft 0kts
20-Dec-18 20:21 43.869687 -121.456242 200 4164ft 0kts
20-Dec-18 20:22 43.869687 -121.456242 200 4164ft 0kts
20-Dec-18 20:23 43.869687 -121.456242 200 4164ft 0kts
20-Dec-18 20:24 43.869687 -121.456242 200 4164ft 0kts
20-Dec-18 20:25 43.869687 -121.456242 200 4164ft 0kts
20-Dec-18 20:26 43.869687 -121.456242 200 4164ft 0kts
20-Dec-18 20:27 43.869687 -121.456242 200 4164ft 0kts
20-Dec-18 20:28 43.869687 -121.456242 200 4164ft 0kts
20-Dec-18 20:29 43.869687 -121.456242 200 4164ft 0kts
20-Dec-18 20:30 43.869687 -121.456242 200 4164ft 0kts
20-Dec-18 20:31 43.869673 -121.456249 199 4164ft 1kts
20-Dec-18 20:32 43.869309 -121.455832 31 4164ft 9kts
20-Dec-18 20:33 43.889466 -121.442460 26 4853ft 97kts
20-Dec-18 20:34 43.913035 -121.421026 10 5944ft 113kts
20-Dec-18 20:35 43.946202 -121.400056 22 7004ft 146kts
20-Dec-18 20:36 43.982592 -121.372611 22 7862ft 161kts
20-Dec-18 20:37 44.027609 -121.350372 0 8004ft 184kts
20-Dec-18 20:38 44.079708 -121.339744 1 8000ft 191kts
20-Dec-18 20:39 44.132292 -121.328789 1 7997ft 192kts
20-Dec-18 20:40 44.185168 -121.317788 1 7996ft 192kts
20-Dec-18 20:41 44.238352 -121.306688 3 7997ft 195kts
20-Dec-18 20:43 44.292369 -121.298311 2 7998ft 196kts
20-Dec-18 20:44 44.346931 -121.290908 3 7998ft 198kts
20-Dec-18 20:45 44.401807 -121.283533 3 7998ft 198kts
20-Dec-18 20:46 44.451323 -121.306156 325 7999ft 191kts
20-Dec-18 20:47 44.498077 -121.341521 325 7999ft 191kts
20-Dec-18 20:48 44.544849 -121.377067 325 7999ft 191kts
20-Dec-18 20:49 44.591482 -121.412586 325 7999ft 191kts
20-Dec-18 20:50 44.638219 -121.448247 325 7999ft 191kts
20-Dec-18 20:51 44.685056 -121.484053 325 8000ft 191kts
20-Dec-18 20:52 44.731698 -121.519775 325 8000ft 191kts
20-Dec-18 20:53 44.778565 -121.555738 325 8000ft 191kts
20-Dec-18 20:54 44.825378 -121.591774 332 8000ft 192kts
20-Dec-18 20:55 44.864945 -121.622273 330 7987ft 150kts
20-Dec-18 20:56 44.901009 -121.649975 328 7984ft 147kts
20-Dec-18 20:57 44.930632 -121.672840 325 7985ft 149kts
20-Dec-18 20:58 44.954599 -121.714841 294 7992ft 145kts
20-Dec-18 20:59 44.973382 -121.764885 293 8006ft 146kts
20-Dec-18 21:00 44.991805 -121.814721 292 8021ft 147kts
20-Dec-18 21:01 45.009188 -121.861974 291 8036ft 148kts
20-Dec-18 21:02 45.028161 -121.913681 290 8052ft 150kts
20-Dec-18 21:03 45.047346 -121.966130 290 8056ft 151kts
20-Dec-18 21:03 45.063419 -122.010108 290 8056ft 152kts
20-Dec-18 21:04 45.082057 -122.061223 290 8073ft 149kts
20-Dec-18 21:05 45.100288 -122.111252 290 8053ft 149kts
20-Dec-18 21:06 45.118525 -122.161392 290 8044ft 148kts
20-Dec-18 21:07 45.135299 -122.207586 290 8047ft 147kts
20-Dec-18 21:08 45.148942 -122.245256 290 8051ft 145kts
20-Dec-18 21:09 45.163032 -122.284140 290 7751ft 137kts
20-Dec-18 21:10 45.176713 -122.322581 289 7325ft 133kts
20-Dec-18 21:11 45.192619 -122.367698 289 6826ft 132kts
20-Dec-18 21:12 45.203467 -122.416537 280 6312ft 130kts
20-Dec-18 21:13 45.213236 -122.464830 280 6054ft 118kts
20-Dec-18 21:14 45.222587 -122.511191 280 5625ft 126kts
20-Dec-18 21:15 45.232385 -122.559752 281 5114ft 129kts
20-Dec-18 21:16 45.242299 -122.608947 281 5066ft 127kts
20-Dec-18 21:17 45.258600 -122.652553 314 4869ft 138kts
20-Dec-18 21:18 45.289659 -122.686078 317 4373ft 141kts
20-Dec-18 21:19 45.320865 -122.719242 317 4067ft 135kts
20-Dec-18 21:20 45.350372 -122.750654 317 4009ft 130kts
20-Dec-18 21:21 45.378798 -122.781394 317 3934ft 132kts
20-Dec-18 21:22 45.409077 -122.812598 319 3453ft 144kts
20-Dec-18 21:23 45.441347 -122.846285 321 2539ft 142kts
20-Dec-18 21:24 45.472817 -122.879126 322 1748ft 139kts
20-Dec-18 21:25 45.502286 -122.909928 321 1023ft 120kts
20-Dec-18 21:26 45.525238 -122.933946 321 481ft 87kts
20-Dec-18 21:27 45.538316 -122.947792 303 201ft 9kts
20-Dec-18 21:28 45.537698 -122.948792 219 201ft 0kts
20-Dec-18 21:29 45.535346 -122.952388 184 201ft 11kts
20-Dec-18 21:30 45.535148 -122.952386 179 201ft 0kts
20-Dec-18 21:31 45.535148 -122.952386 179 201ft 0kts
20-Dec-18 21:32 45.535148 -122.952386 179 201ft 0kts
20-Dec-18 21:33 45.535148 -122.952386 179 201ft 0kts
20-Dec-18 21:34 45.535148 -122.952386 179 201ft 0kts
20-Dec-18 21:35 45.535148 -122.952386 179 201ft 0kts
20-Dec-18 21:36 45.535148 -122.952386 179 201ft 0kts
20-Dec-18 21:37 45.535148 -122.952386 179 201ft 0kts

Navigation Log

Ident Type
Flight plan parsing failed, navigation log unavailable